createdAt,value
2019-05-26T00:00:07.288Z,59.10
2019-05-26T00:02:36.082Z,59.50
2019-05-26T00:05:07.366Z,60.00
2019-05-26T00:07:35.797Z,60.40
2019-05-26T00:10:08.966Z,60.50
2019-05-26T00:12:37.444Z,60.60
2019-05-26T00:15:07.117Z,60.70
2019-05-26T00:17:35.814Z,60.80
2019-05-26T00:20:06.658Z,60.80
2019-05-26T00:22:36.308Z,60.90
2019-05-26T00:25:08.876Z,60.90
2019-05-26T00:27:37.645Z,61.00
2019-05-26T00:30:07.641Z,61.10
2019-05-26T00:32:36.199Z,61.20
2019-05-26T00:35:07.648Z,61.50
2019-05-26T00:37:48.443Z,61.50
2019-05-26T00:40:07.670Z,61.40
2019-05-26T00:42:37.044Z,61.30
2019-05-26T00:45:07.180Z,61.40
2019-05-26T00:47:35.848Z,61.80
2019-05-26T00:50:06.785Z,62.10
2019-05-26T00:52:35.499Z,62.10
2019-05-26T00:55:05.983Z,62.20
2019-05-26T00:57:34.710Z,62.10
2019-05-26T01:00:05.306Z,62.10
2019-05-26T01:02:33.764Z,62.30
2019-05-26T01:05:02.174Z,62.20
2019-05-26T01:07:30.589Z,62.20
2019-05-26T01:09:58.991Z,62.30
2019-05-26T01:12:27.776Z,62.30
2019-05-26T01:14:56.197Z,62.50
2019-05-26T01:17:24.681Z,62.50
2019-05-26T01:19:53.088Z,62.50
2019-05-26T01:22:22.403Z,62.60
2019-05-26T01:24:50.822Z,62.60
2019-05-26T01:27:19.289Z,62.70
2019-05-26T01:29:47.721Z,62.60
2019-05-26T01:32:16.136Z,62.70
2019-05-26T01:34:44.796Z,62.80
2019-05-26T01:37:13.230Z,62.90
2019-05-26T01:39:41.643Z,63.00
2019-05-26T01:42:10.149Z,63.20
2019-05-26T01:44:39.075Z,63.50
2019-05-26T01:47:07.487Z,63.50
2019-05-26T01:49:35.998Z,63.80
2019-05-26T01:52:04.786Z,63.80
2019-05-26T01:54:33.187Z,63.80
2019-05-26T01:57:01.847Z,63.90
2019-05-26T01:59:30.388Z,64.00
2019-05-26T02:01:59.017Z,64.10
2019-05-26T02:04:27.524Z,64.10
2019-05-26T02:06:55.963Z,64.20
2019-05-26T02:09:25.604Z,64.20
2019-05-26T02:11:55.330Z,64.20
2019-05-26T02:14:23.767Z,64.20
2019-05-26T02:16:52.216Z,64.30
2019-05-26T02:19:20.696Z,64.20
2019-05-26T02:21:49.358Z,64.30
2019-05-26T02:24:17.770Z,64.30
2019-05-26T02:26:46.425Z,64.40
2019-05-26T02:29:14.912Z,64.60
2019-05-26T02:31:43.297Z,64.70
2019-05-26T02:34:11.701Z,64.90
2019-05-26T02:36:40.258Z,64.80
2019-05-26T02:39:09.381Z,64.80
2019-05-26T02:41:37.939Z,64.70
2019-05-26T02:44:06.487Z,64.90
2019-05-26T02:46:35.190Z,64.80
2019-05-26T02:49:03.861Z,64.50
2019-05-26T02:51:33.453Z,64.60
2019-05-26T02:54:01.845Z,65.00
2019-05-26T02:56:30.424Z,65.00
2019-05-26T02:58:59.203Z,65.00
2019-05-26T03:01:28.503Z,65.40
2019-05-26T03:03:56.912Z,65.20
2019-05-26T03:06:26.879Z,65.50
2019-05-26T03:08:58.415Z,65.50
2019-05-26T03:11:29.466Z,65.50
2019-05-26T03:14:00.245Z,65.70
2019-05-26T03:16:31.236Z,65.70
2019-05-26T03:19:01.840Z,65.80
2019-05-26T03:21:32.711Z,65.90
2019-05-26T03:24:02.896Z,66.00
2019-05-26T03:26:33.006Z,66.20
2019-05-26T03:29:01.954Z,66.40
2019-05-26T03:31:30.426Z,66.50
2019-05-26T03:33:59.192Z,66.40
2019-05-26T03:36:27.876Z,66.50
2019-05-26T03:38:56.286Z,66.60
2019-05-26T03:41:24.692Z,66.50
2019-05-26T03:43:53.463Z,66.50
2019-05-26T03:46:22.642Z,66.40
2019-05-26T03:48:51.250Z,66.40
2019-05-26T03:51:19.929Z,66.40
2019-05-26T03:53:48.351Z,66.30
2019-05-26T03:56:16.825Z,66.40
2019-05-26T03:58:45.453Z,66.60
2019-05-26T04:01:13.889Z,66.70
2019-05-26T04:03:42.304Z,66.80
2019-05-26T04:06:10.736Z,67.00
2019-05-26T04:08:39.307Z,67.00
2019-05-26T04:11:07.716Z,67.20
2019-05-26T04:13:36.337Z,67.20
2019-05-26T04:16:05.175Z,67.40
2019-05-26T04:18:33.771Z,67.40
2019-05-26T04:21:02.555Z,67.60
2019-05-26T04:23:31.127Z,67.80
2019-05-26T04:25:59.822Z,67.80
2019-05-26T04:28:28.258Z,67.90
2019-05-26T04:30:56.661Z,67.90
2019-05-26T04:33:25.065Z,67.90
2019-05-26T04:35:53.842Z,68.00
2019-05-26T04:38:22.429Z,67.90
2019-05-26T04:40:50.829Z,68.00
2019-05-26T04:43:19.544Z,67.80
2019-05-26T04:45:48.267Z,68.00
2019-05-26T04:48:16.833Z,68.30
2019-05-26T04:50:46.359Z,68.00
2019-05-26T04:53:14.812Z,67.80
2019-05-26T04:55:43.220Z,67.80
2019-05-26T04:58:11.678Z,67.70
2019-05-26T05:00:40.185Z,68.00
2019-05-26T05:03:08.671Z,67.90
2019-05-26T05:05:37.173Z,67.70
2019-05-26T05:08:05.852Z,67.60
2019-05-26T05:10:42.210Z,67.70
2019-05-26T05:13:04.527Z,67.70
2019-05-26T05:15:32.934Z,67.70
2019-05-26T05:18:01.431Z,67.70
2019-05-26T05:20:30.199Z,67.50
2019-05-26T05:22:58.595Z,67.10
2019-05-26T05:25:27.266Z,67.00
2019-05-26T05:27:55.669Z,67.00
2019-05-26T05:30:24.455Z,67.10
2019-05-26T05:32:53.133Z,67.10
2019-05-26T05:35:21.735Z,66.80
2019-05-26T05:37:50.121Z,67.00
2019-05-26T05:40:19.064Z,67.20
2019-05-26T05:42:47.497Z,67.20
2019-05-26T05:45:16.138Z,67.10
2019-05-26T05:47:44.535Z,66.80
2019-05-26T05:50:13.515Z,66.80
2019-05-26T05:52:42.202Z,66.50
2019-05-26T05:55:11.546Z,66.40
2019-05-26T05:57:39.987Z,66.60
2019-05-26T06:00:09.826Z,66.70
2019-05-26T06:02:38.306Z,66.50
2019-05-26T06:05:08.494Z,66.20
2019-05-26T06:07:36.901Z,65.90
2019-05-26T06:10:08.631Z,65.80
2019-05-26T06:12:37.046Z,65.70
2019-05-26T06:15:08.554Z,65.50
2019-05-26T06:17:36.967Z,65.60
2019-05-26T06:20:07.404Z,65.70
2019-05-26T06:22:35.809Z,65.50
2019-05-26T06:25:06.335Z,65.60
2019-05-26T06:27:34.940Z,65.40
2019-05-26T06:30:04.581Z,65.40
2019-05-26T06:32:33.382Z,65.40
2019-05-26T06:35:01.790Z,65.00
2019-05-26T06:37:30.201Z,64.60
2019-05-26T06:39:58.936Z,64.00
2019-05-26T06:42:27.368Z,64.20
2019-05-26T06:44:55.790Z,63.80
2019-05-26T06:47:24.170Z,63.20
2019-05-26T06:49:52.599Z,63.30
2019-05-26T06:52:21.365Z,62.50
2019-05-26T06:54:50.010Z,62.90
2019-05-26T06:57:18.466Z,62.30
2019-05-26T06:59:47.177Z,61.50
2019-05-26T07:02:15.597Z,61.40
2019-05-26T07:04:44.301Z,60.60
2019-05-26T07:07:12.999Z,60.60
2019-05-26T07:09:41.641Z,59.70
2019-05-26T07:12:10.680Z,59.40
2019-05-26T07:14:39.560Z,59.20
2019-05-26T07:17:08.035Z,59.00
2019-05-26T07:19:36.484Z,58.90
2019-05-26T07:22:05.307Z,57.80
2019-05-26T07:24:34.048Z,58.00
2019-05-26T07:27:02.810Z,58.10
2019-05-26T07:29:31.291Z,56.50
2019-05-26T07:31:59.718Z,56.90
2019-05-26T07:34:28.476Z,57.20
2019-05-26T07:36:56.879Z,57.60
2019-05-26T07:39:25.301Z,56.90
2019-05-26T07:42:09.344Z,56.60
2019-05-26T07:44:24.878Z,56.20
2019-05-26T07:46:53.561Z,56.60
2019-05-26T07:49:22.220Z,56.80
2019-05-26T07:51:50.950Z,56.00
2019-05-26T07:54:25.622Z,56.60
2019-05-26T07:56:50.157Z,56.10
2019-05-26T07:59:18.846Z,56.40
2019-05-26T08:01:47.537Z,56.50
2019-05-26T08:04:15.956Z,56.90
2019-05-26T08:06:44.519Z,56.50
2019-05-26T08:09:12.981Z,56.50
2019-05-26T08:11:41.486Z,56.70
2019-05-26T08:14:09.886Z,56.70
2019-05-26T08:16:38.296Z,56.20
2019-05-26T08:19:06.742Z,55.70
2019-05-26T08:21:35.305Z,55.70
2019-05-26T08:24:04.230Z,55.10
2019-05-26T08:26:32.667Z,54.80
2019-05-26T08:29:01.058Z,54.90
2019-05-26T08:31:29.454Z,54.60
2019-05-26T08:33:59.088Z,54.90
2019-05-26T08:36:27.471Z,54.90
2019-05-26T08:38:56.532Z,54.60
2019-05-26T08:41:25.869Z,54.80
2019-05-26T08:43:54.716Z,55.60
2019-05-26T08:46:23.116Z,55.10
2019-05-26T08:48:51.605Z,55.10
2019-05-26T08:51:20.326Z,53.80
2019-05-26T08:53:48.718Z,54.10
2019-05-26T08:56:17.495Z,55.00
2019-05-26T08:58:46.353Z,53.70
2019-05-26T09:01:14.741Z,54.90
2019-05-26T09:03:43.401Z,54.40
2019-05-26T09:06:11.793Z,55.20
2019-05-26T09:08:40.526Z,54.00
2019-05-26T09:11:08.962Z,53.80
2019-05-26T09:13:37.619Z,53.40
2019-05-26T09:16:06.029Z,53.10
2019-05-26T09:18:34.446Z,53.80
2019-05-26T09:21:02.850Z,54.10
2019-05-26T09:23:31.279Z,53.50
2019-05-26T09:25:59.791Z,53.40
2019-05-26T09:28:28.198Z,53.10
2019-05-26T09:30:56.925Z,52.80
2019-05-26T09:33:25.337Z,52.70
2019-05-26T09:35:53.740Z,53.00
2019-05-26T09:38:22.482Z,52.70
2019-05-26T09:40:51.477Z,52.60
2019-05-26T09:43:19.878Z,52.70
2019-05-26T09:45:48.293Z,52.80
2019-05-26T09:48:17.034Z,52.40
2019-05-26T09:50:45.841Z,52.90
2019-05-26T09:53:14.241Z,52.40
2019-05-26T09:55:42.682Z,51.00
2019-05-26T09:58:11.258Z,49.80
2019-05-26T10:00:40.323Z,50.30
2019-05-26T10:03:09.089Z,50.40
2019-05-26T10:05:37.754Z,50.40
2019-05-26T10:08:06.160Z,50.40
2019-05-26T10:10:34.623Z,50.00
2019-05-26T10:13:03.044Z,49.50
2019-05-26T10:15:31.463Z,50.00
2019-05-26T10:17:59.901Z,50.10
2019-05-26T10:20:28.674Z,50.90
2019-05-26T10:22:57.388Z,51.00
2019-05-26T10:25:26.171Z,51.20
2019-05-26T10:27:54.581Z,50.60
2019-05-26T10:30:22.983Z,50.10
2019-05-26T10:32:51.429Z,48.70
2019-05-26T10:35:19.829Z,48.80
2019-05-26T10:37:48.545Z,48.40
2019-05-26T10:40:17.475Z,48.60
2019-05-26T10:42:45.866Z,48.70
2019-05-26T10:45:14.734Z,48.40
2019-05-26T10:47:43.169Z,48.90
2019-05-26T10:50:12.212Z,48.70
2019-05-26T10:52:40.937Z,49.10
2019-05-26T10:55:09.717Z,48.50
2019-05-26T10:57:38.121Z,49.70
2019-05-26T11:00:08.457Z,48.80
2019-05-26T11:02:37.543Z,48.50
2019-05-26T11:05:07.282Z,48.80
2019-05-26T11:07:35.903Z,48.80
2019-05-26T11:10:08.048Z,47.70
2019-05-26T11:12:36.817Z,47.70
2019-05-26T11:15:07.738Z,47.30
2019-05-26T11:17:36.556Z,46.50
2019-05-26T11:20:09.505Z,47.50
2019-05-26T11:22:38.293Z,46.60
2019-05-26T11:25:07.283Z,46.60
2019-05-26T11:27:36.014Z,46.10
2019-05-26T11:30:07.885Z,45.80
2019-05-26T11:32:36.446Z,46.10
2019-05-26T11:35:06.481Z,46.10
2019-05-26T11:37:34.889Z,47.10
2019-05-26T11:40:05.427Z,47.00
2019-05-26T11:42:33.919Z,45.80
2019-05-26T11:45:02.601Z,45.60
2019-05-26T11:47:31.473Z,46.00
2019-05-26T11:49:59.884Z,45.40
2019-05-26T11:52:28.623Z,45.20
2019-05-26T11:54:57.087Z,44.10
2019-05-26T11:57:25.554Z,44.10
2019-05-26T11:59:53.953Z,44.60
2019-05-26T12:02:22.685Z,44.50
2019-05-26T12:04:51.374Z,44.90
2019-05-26T12:07:19.780Z,45.80
2019-05-26T12:09:48.197Z,45.60
2019-05-26T12:12:16.602Z,45.00
2019-05-26T12:14:45.014Z,43.70
2019-05-26T12:17:14.380Z,44.10
2019-05-26T12:19:43.044Z,44.00
2019-05-26T12:22:11.517Z,43.40
2019-05-26T12:24:39.983Z,44.00
2019-05-26T12:27:08.389Z,44.30
2019-05-26T12:29:36.881Z,44.60
2019-05-26T12:32:05.719Z,44.50
2019-05-26T12:34:34.360Z,44.30
2019-05-26T12:37:02.774Z,44.50
2019-05-26T12:39:31.205Z,44.30
2019-05-26T12:42:00.438Z,44.50
2019-05-26T12:44:28.864Z,44.20
2019-05-26T12:46:57.309Z,43.80
2019-05-26T12:49:27.933Z,44.40
2019-05-26T12:51:55.844Z,44.30
2019-05-26T12:54:24.437Z,44.50
2019-05-26T12:56:52.859Z,43.60
2019-05-26T12:59:21.767Z,44.00
2019-05-26T13:01:50.442Z,42.90
2019-05-26T13:04:19.112Z,42.40
2019-05-26T13:06:48.383Z,42.10
2019-05-26T13:09:17.251Z,42.10
2019-05-26T13:11:45.708Z,41.30
2019-05-26T13:14:14.204Z,40.80
2019-05-26T13:16:43.075Z,41.10
2019-05-26T13:19:11.461Z,40.90
2019-05-26T13:21:40.173Z,41.00
2019-05-26T13:24:08.833Z,40.20
2019-05-26T13:26:37.235Z,40.40
2019-05-26T13:29:05.942Z,40.90
2019-05-26T13:31:34.481Z,40.80
2019-05-26T13:34:03.206Z,41.00
2019-05-26T13:36:31.606Z,41.70
2019-05-26T13:39:00.016Z,40.50
2019-05-26T13:41:28.469Z,40.00
2019-05-26T13:43:56.997Z,40.20
2019-05-26T13:46:25.392Z,40.40
2019-05-26T13:48:53.796Z,41.20
2019-05-26T13:51:22.350Z,40.80
2019-05-26T13:53:50.753Z,40.20
2019-05-26T13:56:19.155Z,40.10
2019-05-26T13:58:47.589Z,40.90
2019-05-26T14:01:15.980Z,40.30
2019-05-26T14:03:44.430Z,40.30
2019-05-26T14:06:13.125Z,40.40
2019-05-26T14:08:41.534Z,41.20
2019-05-26T14:11:10.376Z,41.60
2019-05-26T14:13:39.451Z,40.40
2019-05-26T14:16:08.158Z,40.40
2019-05-26T14:18:37.115Z,40.10
2019-05-26T14:21:05.826Z,40.30
2019-05-26T14:23:34.543Z,40.50
2019-05-26T14:26:02.939Z,40.20
2019-05-26T14:28:31.850Z,41.00
2019-05-26T14:31:00.260Z,39.70
2019-05-26T14:33:29.002Z,39.70
2019-05-26T14:35:57.802Z,39.60
2019-05-26T14:38:42.019Z,40.30
2019-05-26T14:40:56.697Z,39.50
2019-05-26T14:43:25.407Z,39.50
2019-05-26T14:45:54.182Z,39.70
2019-05-26T14:48:22.582Z,39.00
2019-05-26T14:50:51.470Z,37.40
2019-05-26T14:53:19.881Z,38.00
2019-05-26T14:55:48.285Z,37.30
2019-05-26T14:58:16.957Z,37.70
2019-05-26T15:00:45.502Z,38.50
2019-05-26T15:03:13.894Z,38.00
2019-05-26T15:05:42.397Z,38.40
2019-05-26T15:08:10.807Z,37.30
2019-05-26T15:10:39.462Z,37.90
2019-05-26T15:13:07.921Z,36.90
2019-05-26T15:15:36.401Z,37.00
2019-05-26T15:18:05.225Z,36.50
2019-05-26T15:20:33.884Z,36.70
2019-05-26T15:23:02.764Z,35.80
2019-05-26T15:25:31.502Z,37.00
2019-05-26T15:27:59.929Z,36.50
2019-05-26T15:30:28.319Z,36.80
2019-05-26T15:32:57.280Z,36.40
2019-05-26T15:35:26.351Z,36.30
2019-05-26T15:37:55.052Z,36.70
2019-05-26T15:40:23.456Z,37.60
2019-05-26T15:42:51.960Z,38.10
2019-05-26T15:45:20.780Z,38.30
2019-05-26T15:47:49.502Z,38.20
2019-05-26T15:50:18.102Z,38.00
2019-05-26T15:52:46.567Z,37.40
2019-05-26T15:55:15.235Z,37.30
2019-05-26T15:57:43.999Z,38.00
2019-05-26T16:00:13.454Z,38.10
2019-05-26T16:02:41.860Z,37.70
2019-05-26T16:05:10.515Z,38.10
2019-05-26T16:07:38.905Z,38.10
2019-05-26T16:10:08.757Z,38.50
2019-05-26T16:12:37.770Z,38.40
2019-05-26T16:15:08.428Z,38.60
2019-05-26T16:17:39.010Z,38.00
2019-05-26T16:20:09.087Z,38.20
2019-05-26T16:22:37.510Z,38.60
2019-05-26T16:25:06.265Z,37.90
2019-05-26T16:27:35.029Z,38.70
2019-05-26T16:30:08.000Z,39.00
2019-05-26T16:32:36.662Z,40.00
2019-05-26T16:35:05.691Z,39.80
2019-05-26T16:37:34.509Z,39.90
2019-05-26T16:40:04.553Z,39.50
2019-05-26T16:42:34.171Z,39.50
2019-05-26T16:45:02.600Z,39.00
2019-05-26T16:47:30.989Z,39.40
2019-05-26T16:49:59.426Z,39.50
2019-05-26T16:52:27.849Z,39.50
2019-05-26T16:54:56.514Z,39.90
2019-05-26T16:57:25.218Z,39.90
2019-05-26T16:59:53.732Z,39.90
2019-05-26T17:02:22.214Z,40.00
2019-05-26T17:04:51.879Z,40.10
2019-05-26T17:07:20.282Z,40.40
2019-05-26T17:09:48.687Z,41.00
2019-05-26T17:12:17.478Z,41.80
2019-05-26T17:14:45.959Z,42.40
2019-05-26T17:17:15.382Z,42.90
2019-05-26T17:19:44.459Z,43.30
2019-05-26T17:22:12.861Z,43.40
2019-05-26T17:24:41.614Z,43.60
2019-05-26T17:27:10.629Z,43.60
2019-05-26T17:29:39.085Z,43.90
2019-05-26T17:32:07.901Z,44.30
2019-05-26T17:34:36.324Z,44.50
2019-05-26T17:37:04.717Z,44.60
2019-05-26T17:39:33.130Z,44.90
2019-05-26T17:42:01.856Z,45.20
2019-05-26T17:44:30.260Z,45.60
2019-05-26T17:46:58.664Z,46.10
2019-05-26T17:49:27.430Z,46.10
2019-05-26T17:51:56.182Z,46.40
2019-05-26T17:54:24.891Z,46.60
2019-05-26T17:56:53.355Z,46.80
2019-05-26T17:59:22.237Z,47.00
2019-05-26T18:01:50.643Z,47.10
2019-05-26T18:04:19.257Z,47.10
2019-05-26T18:06:47.712Z,47.10
2019-05-26T18:09:16.430Z,47.20
2019-05-26T18:11:45.359Z,47.50
2019-05-26T18:14:14.119Z,47.60
2019-05-26T18:16:42.755Z,47.60
2019-05-26T18:19:11.479Z,47.50
2019-05-26T18:21:40.168Z,47.60
2019-05-26T18:24:08.856Z,47.60
2019-05-26T18:26:37.263Z,47.80
2019-05-26T18:29:06.026Z,47.90
2019-05-26T18:31:35.273Z,47.80
2019-05-26T18:34:04.019Z,47.90
2019-05-26T18:36:32.727Z,48.20
2019-05-26T18:39:01.143Z,48.10
2019-05-26T18:41:30.095Z,48.10
2019-05-26T18:43:59.109Z,48.10
2019-05-26T18:46:27.513Z,48.10
2019-05-26T18:48:56.261Z,48.10
2019-05-26T18:51:25.056Z,48.00
2019-05-26T18:53:53.448Z,48.00
2019-05-26T18:56:22.271Z,48.20
2019-05-26T18:58:50.933Z,48.90
2019-05-26T19:01:19.628Z,49.10
2019-05-26T19:03:49.182Z,49.00
2019-05-26T19:06:17.577Z,49.10
2019-05-26T19:08:46.213Z,49.20
2019-05-26T19:11:14.894Z,49.20
2019-05-26T19:13:43.353Z,49.30
2019-05-26T19:16:11.766Z,49.30
2019-05-26T19:18:41.158Z,49.50
2019-05-26T19:21:10.181Z,49.90
2019-05-26T19:23:38.865Z,50.20
2019-05-26T19:26:07.333Z,50.10
2019-05-26T19:28:35.781Z,50.40
2019-05-26T19:31:04.166Z,50.60
2019-05-26T19:33:32.830Z,50.60
2019-05-26T19:36:01.215Z,50.60
2019-05-26T19:38:29.735Z,50.50
2019-05-26T19:40:58.176Z,50.90
2019-05-26T19:43:26.766Z,50.90
2019-05-26T19:45:55.336Z,50.80
2019-05-26T19:48:35.546Z,50.70
2019-05-26T19:50:54.647Z,50.90
2019-05-26T19:53:23.044Z,51.00
2019-05-26T19:55:51.723Z,51.50
2019-05-26T19:58:20.421Z,51.60
2019-05-26T20:00:48.820Z,51.60
2019-05-26T20:03:18.617Z,52.10
2019-05-26T20:05:47.039Z,52.30
2019-05-26T20:08:15.433Z,52.20
2019-05-26T20:10:44.194Z,52.30
2019-05-26T20:13:12.726Z,52.60
2019-05-26T20:15:41.112Z,52.70
2019-05-26T20:18:09.578Z,52.80
2019-05-26T20:20:38.836Z,52.80
2019-05-26T20:23:07.290Z,52.90
2019-05-26T20:25:35.725Z,53.00
2019-05-26T20:28:04.503Z,53.20
2019-05-26T20:30:33.490Z,53.50
2019-05-26T20:33:01.933Z,53.60
2019-05-26T20:35:30.667Z,53.70
2019-05-26T20:37:59.091Z,53.70
2019-05-26T20:40:27.586Z,54.00
2019-05-26T20:42:56.319Z,54.10
2019-05-26T20:45:24.817Z,54.40
2019-05-26T20:47:53.328Z,54.60
2019-05-26T20:50:29.340Z,54.50
2019-05-26T20:52:52.073Z,54.80
2019-05-26T20:55:20.550Z,54.80
2019-05-26T20:57:48.972Z,55.00
2019-05-26T21:00:17.876Z,55.10
2019-05-26T21:02:46.967Z,55.30
2019-05-26T21:05:15.629Z,55.40
2019-05-26T21:07:44.070Z,55.60
2019-05-26T21:10:14.032Z,55.70
2019-05-26T21:12:42.699Z,55.80
2019-05-26T21:15:13.461Z,55.80
2019-05-26T21:17:42.228Z,55.90
2019-05-26T21:20:11.486Z,56.00
2019-05-26T21:22:40.419Z,56.30
2019-05-26T21:25:09.976Z,56.60
2019-05-26T21:27:38.380Z,56.70
2019-05-26T21:30:10.514Z,56.80
2019-05-26T21:32:38.939Z,57.00
2019-05-26T21:35:07.875Z,57.00
2019-05-26T21:37:36.273Z,56.90
2019-05-26T21:40:07.141Z,57.00
2019-05-26T21:42:35.554Z,57.10
2019-05-26T21:45:05.884Z,57.10
2019-05-26T21:47:35.729Z,57.10
2019-05-26T21:50:06.970Z,57.10
2019-05-26T21:52:35.547Z,57.10
2019-05-26T21:55:05.413Z,57.20
2019-05-26T21:57:33.835Z,57.40
2019-05-26T22:00:02.726Z,57.50
2019-05-26T22:02:31.157Z,57.60
2019-05-26T22:04:59.567Z,57.70
2019-05-26T22:07:27.980Z,57.70
2019-05-26T22:09:57.005Z,57.70
2019-05-26T22:12:25.877Z,57.70
2019-05-26T22:14:54.384Z,57.90
2019-05-26T22:17:23.159Z,57.90
2019-05-26T22:19:52.148Z,57.90
2019-05-26T22:22:20.850Z,58.10
2019-05-26T22:24:50.172Z,58.00
2019-05-26T22:27:18.580Z,58.00
2019-05-26T22:29:46.994Z,57.90
2019-05-26T22:32:16.916Z,58.00
2019-05-26T22:34:45.594Z,57.90
2019-05-26T22:37:14.083Z,58.00
2019-05-26T22:39:42.884Z,58.00
2019-05-26T22:42:11.291Z,58.00
2019-05-26T22:44:39.704Z,58.00
2019-05-26T22:47:08.435Z,58.10
2019-05-26T22:49:36.865Z,58.30
2019-05-26T22:52:05.269Z,58.30
2019-05-26T22:54:33.998Z,58.30
2019-05-26T22:57:02.431Z,58.60
2019-05-26T22:59:30.848Z,58.60
2019-05-26T23:02:00.478Z,58.70
2019-05-26T23:04:29.387Z,58.80
2019-05-26T23:06:58.062Z,58.90
2019-05-26T23:09:26.501Z,58.80
2019-05-26T23:11:55.076Z,58.70
2019-05-26T23:14:23.471Z,58.80
2019-05-26T23:16:52.383Z,58.80
2019-05-26T23:19:20.789Z,58.80
2019-05-26T23:21:49.241Z,58.80
2019-05-26T23:24:17.974Z,58.70
2019-05-26T23:26:46.746Z,58.70
2019-05-26T23:29:15.466Z,58.70
2019-05-26T23:31:43.903Z,58.80
2019-05-26T23:34:12.640Z,58.70
2019-05-26T23:36:41.021Z,58.70
2019-05-26T23:39:09.757Z,58.80
2019-05-26T23:41:38.612Z,58.80
2019-05-26T23:44:07.004Z,59.00
2019-05-26T23:46:36.229Z,59.00
2019-05-26T23:49:04.626Z,59.20
2019-05-26T23:51:33.369Z,59.40
2019-05-26T23:54:01.837Z,59.50
2019-05-26T23:56:30.250Z,59.60
2019-05-26T23:58:58.932Z,59.80
